Terminal Aerodrome Forecast
Issued by NWS Mt. Holly, NJ

Home | Current Version | Previous Version | Text Only | Print | Product List | Glossary On
Versions: 1 2 3 4 5 6 7 8 9 10 11 12 13 14 15 16 17 18 19 20 21 22 23 24 25 26 27 28
000
FTUS41 KPHI 240500
TAFRDG
TAF
KRDG 240533Z 2406/2506 00000KT P6SM FEW020 BKN100
      TEMPO 2407/2411 5SM BR
     FM241300 34009KT P6SM SCT050 BKN200
     FM250000 35004KT P6SM BKN250=

USA.gov is the U.S. government's official web portal to all federal, state and local government web resources and services.